Time;durP1;ratioP1;P1;durP2;ratioP2;P2;SDS_P1;SDS_P2;PMS_P1;PMS_P2;Temp;Humidity;BMP_temperature;BMP_pressure;BME280_temperature;BME280_humidity;BME280_pressure;Samples;Min_cycle;Max_cycle;Signal;HPM_P1;HPM_P2
2023/07/12 00:00:50;;;;;;;11.73;8.60;;;;;;;20.91;100.00;99786.25;4975214;28;20043;-77
2023/07/12 00:03:18;;;;;;;10.18;8.65;;;;;;;20.88;100.00;99786.56;4973767;28;20067;-79
2023/07/12 00:05:46;;;;;;;11.85;9.05;;;;;;;20.87;100.00;99796.47;4976715;28;20051;-77
2023/07/12 00:08:25;;;;;;;12.05;9.00;;;;;;;20.85;100.00;99803.00;4980002;28;20051;-78
2023/07/12 00:10:53;;;;;;;10.10;8.57;;;;;;;20.81;100.00;99796.22;4987344;28;20063;-77
2023/07/12 00:13:20;;;;;;;11.23;9.07;;;;;;;20.77;100.00;99778.72;4979545;28;20051;-78
2023/07/12 00:15:48;;;;;;;15.55;9.38;;;;;;;20.80;100.00;99790.00;4989741;28;20050;-78
2023/07/12 00:18:18;;;;;;;11.77;9.65;;;;;;;20.81;100.00;99796.22;4987433;28;20567;-79
2023/07/12 00:20:46;;;;;;;12.25;9.38;;;;;;;20.81;100.00;99801.59;4978605;28;20045;-79
2023/07/12 00:23:14;;;;;;;10.75;8.98;;;;;;;20.78;100.00;99788.50;4980411;28;20143;-79
2023/07/12 00:25:43;;;;;;;10.75;8.60;;;;;;;20.83;100.00;99788.84;4992574;28;20049;-77
2023/07/12 00:28:27;;;;;;;13.32;9.15;;;;;;;20.93;100.00;99792.34;4977591;28;20070;-78
2023/07/12 00:30:56;;;;;;;11.57;9.20;;;;;;;20.89;100.00;99770.25;4991090;28;20655;-78
2023/07/12 00:33:23;;;;;;;11.15;8.57;;;;;;;20.67;100.00;99741.09;4972807;28;20302;-78
2023/07/12 00:35:51;;;;;;;12.73;8.57;;;;;;;20.78;100.00;99767.78;4990369;28;20133;-79
2023/07/12 00:38:23;;;;;;;11.27;8.27;;;;;;;20.83;100.00;99767.31;4992405;28;20053;-80
2023/07/12 00:40:56;;;;;;;11.65;8.38;;;;;;;20.89;100.00;99759.50;4972676;28;20078;-79
2023/07/12 00:43:55;;;;;;;11.15;7.90;;;;;;;21.01;100.00;99754.72;4961998;28;20051;-78
2023/07/12 00:46:30;;;;;;;11.65;7.60;;;;;;;21.17;100.00;99768.34;4970428;28;20054;-78
2023/07/12 00:48:57;;;;;;;12.98;7.38;;;;;;;21.11;100.00;99771.63;4982124;28;20106;-78
2023/07/12 00:51:27;;;;;;;10.63;7.53;;;;;;;21.03;100.00;99774.25;4962877;28;20054;-78
2023/07/12 00:53:57;;;;;;;9.50;7.17;;;;;;;20.93;100.00;99763.59;4961778;28;20074;-78
2023/07/12 00:56:24;;;;;;;;;;;;;;;20.91;100.00;99767.44;4989463;28;20055;-79
2023/07/12 00:59:03;;;;;;;8.80;7.35;;;;;;;20.95;100.00;99763.41;4971322;28;19928;-78
2023/07/12 01:01:34;;;;;;;7.47;6.50;;;;;;;21.07;100.00;99753.28;4971911;28;20047;-78
2023/07/12 01:04:02;;;;;;;11.82;6.97;;;;;;;21.13;100.00;99752.63;4979452;28;20043;-79
2023/07/12 01:06:30;;;;;;;8.77;6.20;;;;;;;21.21;100.00;99750.06;4974873;28;20038;-79
2023/07/12 01:09:02;;;;;;;8.50;6.38;;;;;;;21.24;100.00;99750.59;4984091;28;20061;-77
2023/07/12 01:11:29;;;;;;;6.97;6.15;;;;;;;21.25;100.00;99757.66;4972973;28;20045;-78
2023/07/12 01:13:56;;;;;;;7.97;5.97;;;;;;;21.02;100.00;99759.97;4967729;28;20154;-78
2023/07/12 01:16:23;;;;;;;7.63;6.10;;;;;;;20.90;100.00;99749.59;4989487;28;20057;-77
2023/07/12 01:18:50;;;;;;;7.75;5.93;;;;;;;20.91;100.00;99776.34;4990760;28;20047;-77
2023/07/12 01:21:21;;;;;;;8.13;6.28;;;;;;;20.80;100.00;99773.84;4972054;28;20050;-79
2023/07/12 01:23:47;;;;;;;9.82;6.68;;;;;;;20.74;100.00;99776.31;4982251;28;20090;-77
2023/07/12 01:26:17;;;;;;;12.13;7.07;;;;;;;20.70;100.00;99783.84;4981398;28;20081;-80
2023/07/12 01:28:45;;;;;;;6.53;5.65;;;;;;;20.59;100.00;99776.00;4973989;28;20057;-77
2023/07/12 01:31:11;;;;;;;9.10;6.03;;;;;;;20.60;100.00;99775.84;4969872;28;20078;-77
2023/07/12 01:33:38;;;;;;;8.77;6.40;;;;;;;20.58;100.00;99767.09;4969091;28;20504;-79
2023/07/12 01:36:05;;;;;;;7.93;6.55;;;;;;;20.72;100.00;99789.09;4984378;28;20050;-77
2023/07/12 01:38:32;;;;;;;7.70;5.60;;;;;;;20.79;100.00;99787.47;4970432;28;20047;-79
2023/07/12 01:40:58;;;;;;;7.82;6.13;;;;;;;20.69;100.00;99760.63;4970973;28;20504;-78
2023/07/12 01:43:25;;;;;;;7.15;5.72;;;;;;;20.77;100.00;99763.41;4969982;28;20392;-77
2023/07/12 01:45:52;;;;;;;8.15;5.70;;;;;;;20.64;100.00;99719.88;4966170;28;20485;-77
2023/07/12 01:48:19;;;;;;;6.95;5.75;;;;;;;20.83;100.00;99732.34;4970249;28;20931;-77
2023/07/12 01:50:45;;;;;;;7.38;5.22;;;;;;;21.10;100.00;99766.41;4971627;28;20129;-77
2023/07/12 01:53:12;;;;;;;6.45;4.72;;;;;;;21.19;100.00;99769.06;4972067;28;20472;-77
2023/07/12 01:55:38;;;;;;;6.78;5.15;;;;;;;21.16;100.00;99731.63;4964151;28;20118;-76
2023/07/12 01:58:05;;;;;;;5.68;4.80;;;;;;;21.09;100.00;99724.34;4964578;28;20129;-77
2023/07/12 02:00:31;;;;;;;9.68;5.88;;;;;;;20.92;100.00;99734.13;4967828;28;20153;-80
2023/07/12 02:02:58;;;;;;;6.43;4.95;;;;;;;20.94;100.00;99743.72;4969375;28;20580;-79
2023/07/12 02:05:25;;;;;;;8.65;5.22;;;;;;;20.97;100.00;99737.19;4961241;28;20132;-78
2023/07/12 02:07:56;;;;;;;8.00;5.88;;;;;;;20.80;100.00;99732.66;4968762;28;20070;-79
2023/07/12 02:10:26;;;;;;;7.63;4.95;;;;;;;20.66;100.00;99712.50;4965224;28;20217;-78
2023/07/12 02:12:52;;;;;;;6.88;5.65;;;;;;;20.78;100.00;99730.09;4967805;28;20058;-78
2023/07/12 02:15:19;;;;;;;5.97;4.47;;;;;;;20.56;100.00;99684.84;4956874;28;20053;-78
2023/07/12 02:17:46;;;;;;;7.00;5.20;;;;;;;20.92;100.00;99709.91;4967494;28;20138;-79
2023/07/12 02:20:13;;;;;;;7.68;4.72;;;;;;;21.06;100.00;99721.97;4965977;28;20047;-78
2023/07/12 02:22:43;;;;;;;6.00;5.05;;;;;;;21.20;100.00;99714.22;4968813;28;20483;-76
2023/07/12 02:25:11;;;;;;;6.78;4.13;;;;;;;21.29;100.00;99718.66;4973146;28;20049;-79
2023/07/12 02:27:38;;;;;;;8.00;4.43;;;;;;;21.37;100.00;99714.34;4985738;28;20043;-76
2023/07/12 02:30:17;;;;;;;5.38;4.30;;;;;;;21.47;100.00;99718.59;4969988;28;20043;-78
2023/07/12 02:32:44;;;;;;;7.30;4.78;;;;;;;21.46;100.00;99716.06;4983794;28;20079;-79
2023/07/12 02:35:12;;;;;;;7.35;4.55;;;;;;;21.39;100.00;99706.94;4960797;28;20051;-77
2023/07/12 02:37:39;;;;;;;6.05;4.68;;;;;;;21.11;100.00;99655.03;4966617;28;20152;-77
2023/07/12 02:40:07;;;;;;;5.38;4.60;;;;;;;21.41;100.00;99697.69;4987576;28;20661;-77
2023/07/12 02:42:34;;;;;;;8.18;4.57;;;;;;;21.47;100.00;99691.69;4964329;28;20070;-78
2023/07/12 02:45:00;;;;;;;5.78;4.55;;;;;;;21.48;100.00;99690.66;4958595;28;20532;-79
2023/07/12 02:47:27;;;;;;;5.57;4.20;;;;;;;21.44;100.00;99688.44;4969748;28;20098;-79
2023/07/12 02:49:54;;;;;;;6.40;4.47;;;;;;;21.40;100.00;99682.56;4968620;28;20070;-79
2023/07/12 02:52:20;;;;;;;5.78;4.35;;;;;;;21.41;100.00;99688.78;4969472;28;20098;-79
2023/07/12 02:54:47;;;;;;;6.43;4.47;;;;;;;21.19;100.00;99655.97;4969762;28;20150;-79
2023/07/12 02:57:16;;;;;;;6.32;4.30;;;;;;;21.44;100.00;99693.84;4970888;28;20054;-79
2023/07/12 02:59:42;;;;;;;5.22;4.30;;;;;;;21.45;100.00;99695.53;4974872;28;20202;-78
2023/07/12 03:02:11;;;;;;;8.02;4.18;;;;;;;21.33;100.00;99686.88;4995913;28;20475;-78
2023/07/12 03:04:38;;;;;;;7.50;4.60;;;;;;;21.14;100.00;99635.88;4981431;28;20030;-78
2023/07/12 03:07:05;;;;;;;6.97;4.10;;;;;;;21.01;100.00;99614.75;4971862;28;20067;-78
2023/07/12 03:09:32;;;;;;;9.23;4.60;;;;;;;21.53;100.00;99699.13;4981955;28;20096;-77
2023/07/12 03:11:58;;;;;;;5.35;3.83;;;;;;;21.49;100.00;99694.22;4973773;28;20043;-78
2023/07/12 03:14:25;;;;;;;5.78;4.10;;;;;;;21.29;100.00;99672.88;4967206;28;20042;-79
2023/07/12 03:16:52;;;;;;;5.75;4.05;;;;;;;21.15;100.00;99673.41;4964310;28;20075;-78
2023/07/12 03:19:19;;;;;;;10.52;4.35;;;;;;;21.25;100.00;99695.72;4972022;28;20129;-77
2023/07/12 03:21:46;;;;;;;7.35;4.28;;;;;;;21.30;100.00;99695.25;4974205;28;20042;-76
2023/07/12 03:24:13;;;;;;;4.57;4.10;;;;;;;21.32;100.00;99685.19;4974793;28;20093;-78
2023/07/12 03:26:40;;;;;;;5.90;4.40;;;;;;;21.34;100.00;99677.78;4969768;28;20101;-77
2023/07/12 03:29:07;;;;;;;5.95;4.45;;;;;;;21.50;100.00;99695.91;4973846;28;20133;-78
2023/07/12 03:31:34;;;;;;;6.18;4.75;;;;;;;21.26;100.00;99693.88;4977018;28;20415;-78
2023/07/12 03:34:00;;;;;;;6.82;4.40;;;;;;;21.12;100.00;99671.03;4988465;28;20034;-79
2023/07/12 03:36:29;;;;;;;6.82;4.78;;;;;;;21.12;100.00;99708.72;4973964;28;20050;-78
2023/07/12 03:38:58;;;;;;;7.43;5.10;;;;;;;21.03;100.00;99696.19;4981211;28;20049;-78
2023/07/12 03:41:25;;;;;;;7.90;4.68;;;;;;;21.12;100.00;99695.25;4981806;28;20133;-79
2023/07/12 03:43:52;;;;;;;5.90;4.95;;;;;;;20.97;100.00;99683.34;4993625;28;20046;-79
2023/07/12 03:46:18;;;;;;;8.35;4.38;;;;;;;21.21;100.00;99709.69;4982585;28;20034;-80
2023/07/12 03:48:45;;;;;;;5.78;3.90;;;;;;;21.37;100.00;99711.63;4980833;28;20499;-78
2023/07/12 03:51:14;;;;;;;5.85;3.92;;;;;;;21.43;100.00;99702.91;4987878;28;20046;-79
2023/07/12 03:53:41;;;;;;;5.95;3.88;;;;;;;21.32;100.00;99672.56;4998082;28;20038;-79
2023/07/12 03:56:08;;;;;;;5.20;4.30;;;;;;;21.51;100.00;99705.69;4988651;28;20046;-79
2023/07/12 03:58:37;;;;;;;7.95;4.60;;;;;;;21.47;100.00;99717.75;4997189;28;20043;-79
2023/07/12 04:01:08;;;;;;;4.68;4.05;;;;;;;21.27;100.00;99700.94;4979264;28;20061;-79
2023/07/12 04:03:36;;;;;;;6.15;4.32;;;;;;;21.44;100.00;99715.38;4997924;28;20065;-78
2023/07/12 04:06:04;;;;;;;7.15;5.10;;;;;;;21.35;100.00;99728.81;4977826;28;20053;-79
2023/07/12 04:08:31;;;;;;;5.50;4.40;;;;;;;20.92;100.00;99670.38;4978384;28;20058;-80
2023/07/12 04:10:58;;;;;;;6.63;4.47;;;;;;;20.92;100.00;99681.16;4974058;28;20133;-78
2023/07/12 04:13:25;;;;;;;11.35;4.85;;;;;;;21.15;100.00;99729.94;4987341;28;20061;-78
2023/07/12 04:15:55;;;;;;;7.10;4.93;;;;;;;20.78;100.00;99689.75;4985367;28;20230;-80
2023/07/12 04:18:26;;;;;;;7.80;4.80;;;;;;;20.90;100.00;99710.06;4988706;28;20146;-77
2023/07/12 04:20:54;;;;;;;5.78;4.82;;;;;;;20.93;100.00;99723.22;4980687;28;20078;-78
2023/07/12 04:23:21;;;;;;;5.88;4.80;;;;;;;20.99;100.00;99729.81;4986311;28;20061;-79
2023/07/12 04:25:48;;;;;;;5.50;4.43;;;;;;;21.05;100.00;99739.97;4971097;28;20054;-79
2023/07/12 04:28:15;;;;;;;9.95;5.05;;;;;;;21.15;100.00;99737.19;4980650;28;20686;-79
2023/07/12 04:30:42;;;;;;;5.65;4.68;;;;;;;21.23;100.00;99765.06;4978152;28;20046;-79
2023/07/12 04:33:08;;;;;;;7.10;5.18;;;;;;;21.09;100.00;99760.19;4977801;28;20061;-80
2023/07/12 04:35:38;;;;;;;8.90;4.68;;;;;;;21.04;100.00;99743.66;4967217;28;20154;-79
2023/07/12 04:38:05;;;;;;;10.23;4.75;;;;;;;21.17;100.00;99733.34;4976932;28;20135;-79
2023/07/12 04:40:32;;;;;;;5.32;4.30;;;;;;;21.23;100.00;99726.53;4982535;28;20515;-80
2023/07/12 04:42:58;;;;;;;6.38;4.90;;;;;;;21.43;100.00;99779.19;4990136;28;20105;-79
2023/07/12 04:45:25;;;;;;;7.85;4.82;;;;;;;21.00;100.00;99691.13;4980287;28;20218;-79
2023/07/12 04:47:52;;;;;;;7.35;4.43;;;;;;;21.41;100.00;99745.34;4985766;28;20061;-79
2023/07/12 04:50:19;;;;;;;7.72;4.65;;;;;;;21.09;100.00;99671.38;4984681;28;20050;-80
2023/07/12 04:52:45;;;;;;;7.10;4.55;;;;;;;21.70;100.00;99754.81;4982121;28;20094;-79
2023/07/12 04:55:24;;;;;;;8.20;4.78;;;;;;;21.84;100.00;99782.19;4979259;28;20534;-79
2023/07/12 04:57:51;;;;;;;5.35;4.53;;;;;;;21.92;100.00;99791.16;4981695;28;20054;-80
2023/07/12 05:00:18;;;;;;;9.80;5.20;;;;;;;21.77;100.00;99783.81;5004333;28;20097;-79
2023/07/12 05:02:46;;;;;;;11.98;5.15;;;;;;;21.57;100.00;99762.44;4982676;28;20057;-80
2023/07/12 05:05:13;;;;;;;9.85;5.63;;;;;;;21.69;100.00;99755.81;4993864;28;20054;-78
2023/07/12 05:07:40;;;;;;;7.80;4.65;;;;;;;21.90;100.00;99803.94;4984164;28;20054;-79
2023/07/12 05:10:10;;;;;;;7.40;5.43;;;;;;;21.69;100.00;99790.00;4981900;28;20042;-79
2023/07/12 05:12:38;;;;;;;10.20;6.10;;;;;;;21.70;100.00;99848.28;4972801;28;20046;-79
2023/07/12 05:15:06;;;;;;;10.65;5.43;;;;;;;21.63;100.00;99848.06;4983202;28;20476;-79
2023/07/12 05:17:38;;;;;;;7.38;4.93;;;;;;;21.44;100.00;99831.19;4997297;28;20046;-80
2023/07/12 05:20:09;;;;;;;11.70;5.57;;;;;;;21.51;100.00;99857.38;4999231;28;20108;-79
2023/07/12 05:22:36;;;;;;;7.22;5.47;;;;;;;21.29;100.00;99818.28;4981824;28;20057;-79
2023/07/12 05:25:03;;;;;;;10.07;5.38;;;;;;;21.57;100.00;99869.38;4981157;28;20042;-78
2023/07/12 05:27:30;;;;;;;7.53;5.60;;;;;;;21.07;100.00;99821.44;4978730;28;20109;-79
2023/07/12 05:29:57;;;;;;;8.88;5.70;;;;;;;21.16;100.00;99881.56;4977990;28;20116;-79
2023/07/12 05:32:23;;;;;;;10.80;6.43;;;;;;;21.01;100.00;99883.94;4981108;28;20096;-80
2023/07/12 05:34:50;;;;;;;10.38;6.38;;;;;;;21.09;100.00;99892.13;4977878;28;20516;-79
2023/07/12 05:37:17;;;;;;;11.10;6.82;;;;;;;21.13;100.00;99888.09;4993207;28;20069;-80
2023/07/12 05:39:44;;;;;;;10.40;6.68;;;;;;;21.18;100.00;99888.50;4989521;28;20081;-79
2023/07/12 05:42:10;;;;;;;12.60;6.97;;;;;;;21.17;100.00;99873.34;4981709;28;20046;-79
2023/07/12 05:44:37;;;;;;;9.32;6.68;;;;;;;21.25;100.00;99872.63;4975427;28;20459;-79
2023/07/12 05:47:04;;;;;;;11.68;5.82;;;;;;;21.35;100.00;99887.72;4975841;28;20054;-79
2023/07/12 05:49:31;;;;;;;6.93;5.28;;;;;;;21.42;100.00;99877.16;4983539;28;20052;-78
2023/07/12 05:51:59;;;;;;;7.60;5.18;;;;;;;21.31;100.00;99843.22;4980532;28;20046;-80
2023/07/12 05:54:26;;;;;;;6.72;5.07;;;;;;;21.49;100.00;99834.28;4989690;28;20137;-80
2023/07/12 05:56:52;;;;;;;8.75;5.13;;;;;;;21.58;100.00;99858.44;4983498;28;20039;-79
2023/07/12 05:59:20;;;;;;;9.88;5.30;;;;;;;21.47;100.00;99820.97;4987147;28;20105;-80
2023/07/12 06:01:47;;;;;;;6.97;5.43;;;;;;;21.55;100.00;99814.81;4985649;28;20062;-79
2023/07/12 06:04:14;;;;;;;7.75;5.10;;;;;;;21.65;100.00;99853.28;4986358;28;20073;-81
2023/07/12 06:06:40;;;;;;;7.00;5.00;;;;;;;21.66;100.00;99833.41;4981907;28;20455;-81
2023/07/12 06:09:07;;;;;;;4.75;4.28;;;;;;;22.26;100.00;99892.84;4981716;28;20429;-78
2023/07/12 06:11:34;;;;;;;5.40;4.00;;;;;;;22.43;100.00;99894.66;4977825;28;20706;-80
2023/07/12 06:14:01;;;;;;;4.45;3.95;;;;;;;22.69;100.00;99890.03;5000535;28;20046;-78
2023/07/12 06:16:27;;;;;;;5.50;4.00;;;;;;;23.03;100.00;99900.00;4982869;28;20070;-79
2023/07/12 06:18:54;;;;;;;5.63;4.07;;;;;;;23.18;100.00;99898.34;4980726;28;20046;-80
2023/07/12 06:21:21;;;;;;;4.10;3.38;;;;;;;23.23;100.00;99885.22;4985256;28;20755;-78
2023/07/12 06:23:49;;;;;;;5.40;3.38;;;;;;;23.68;100.00;99919.94;4986608;28;20050;-78
2023/07/12 06:26:16;;;;;;;3.92;3.08;;;;;;;24.00;96.69;99926.38;4999715;28;20046;-80
2023/07/12 06:28:42;;;;;;;3.72;2.83;;;;;;;24.01;96.83;99915.38;5004254;28;20046;-80
2023/07/12 06:31:09;;;;;;;4.53;2.90;;;;;;;23.82;94.22;99874.31;4998286;28;20042;-80
2023/07/12 06:33:38;;;;;;;3.63;3.13;;;;;;;24.13;95.96;99932.09;4982877;28;20054;-81
2023/07/12 06:36:05;;;;;;;9.57;3.10;;;;;;;23.97;97.83;99914.03;4984070;28;20046;-79
2023/07/12 06:38:32;;;;;;;3.80;2.47;;;;;;;23.63;94.09;99880.91;4988740;28;20046;-80
2023/07/12 06:40:59;;;;;;;5.50;3.00;;;;;;;23.50;96.38;99891.31;4980304;28;20120;-80
2023/07/12 06:43:26;;;;;;;3.63;2.67;;;;;;;23.33;95.16;99904.81;4981513;28;20093;-80
2023/07/12 06:45:55;;;;;;;2.67;2.22;;;;;;;23.23;96.16;99909.53;4986316;28;20076;-79
2023/07/12 06:48:23;;;;;;;3.83;2.50;;;;;;;23.33;96.11;99928.28;4993920;28;20034;-80
2023/07/12 06:50:49;;;;;;;4.32;2.40;;;;;;;23.34;96.72;99949.72;5003102;28;20034;-79
2023/07/12 06:53:16;;;;;;;3.78;2.67;;;;;;;23.35;95.88;99943.31;4991110;28;20046;-82
2023/07/12 06:55:44;;;;;;;3.90;2.75;;;;;;;23.83;95.99;99949.84;4986701;28;20115;-80
2023/07/12 06:58:11;;;;;;;2.80;2.60;;;;;;;24.56;93.97;99966.06;4989531;28;20065;-81
2023/07/12 07:00:42;;;;;;;3.00;2.50;;;;;;;25.09;85.76;99918.53;4997280;28;20046;-80
2023/07/12 07:03:10;;;;;;;3.80;2.47;;;;;;;25.83;77.67;99930.63;4973541;28;20046;-79
2023/07/12 07:05:39;;;;;;;2.50;2.30;;;;;;;26.48;66.45;99949.94;4986981;28;20480;-79
2023/07/12 07:08:08;;;;;;;3.72;2.55;;;;;;;26.56;66.96;99900.13;4970743;28;20142;-81
2023/07/12 07:10:35;;;;;;;3.50;2.28;;;;;;;26.99;68.78;99944.63;4981905;28;20122;-80
2023/07/12 07:13:01;;;;;;;2.97;2.13;;;;;;;27.32;60.35;99949.66;4981720;28;20416;-79
2023/07/12 07:15:28;;;;;;;4.00;2.55;;;;;;;27.26;61.91;99913.19;4979060;28;20070;-80
2023/07/12 07:17:55;;;;;;;3.42;2.70;;;;;;;26.81;61.64;99893.38;4970056;28;20069;-80
2023/07/12 07:20:22;;;;;;;2.90;2.60;;;;;;;26.43;63.12;99908.94;4978539;28;20050;-81
2023/07/12 07:22:49;;;;;;;3.10;2.80;;;;;;;26.02;66.12;99935.56;4989871;28;20058;-79
2023/07/12 07:25:16;;;;;;;3.25;2.70;;;;;;;25.53;70.71;99875.41;4975111;28;20058;-81
2023/07/12 07:27:47;;;;;;;4.10;2.70;;;;;;;25.99;67.84;99952.22;4987970;28;20474;-79
2023/07/12 07:30:14;;;;;;;4.07;2.35;;;;;;;26.12;70.63;99941.59;4979799;28;20704;-81
2023/07/12 07:32:40;;;;;;;2.83;2.45;;;;;;;26.52;66.37;99953.13;4988412;28;20141;-80
2023/07/12 07:35:08;;;;;;;3.63;2.67;;;;;;;26.70;64.04;99934.59;4965186;28;20044;-79
2023/07/12 07:37:35;;;;;;;3.15;2.33;;;;;;;27.14;64.66;99936.47;4973349;28;20042;-79
2023/07/12 07:40:03;;;;;;;4.43;2.45;;;;;;;27.39;58.98;99942.44;4972465;28;20050;-78
2023/07/12 07:42:30;;;;;;;4.38;2.33;;;;;;;27.46;60.11;99957.78;4966665;28;20059;-79
2023/07/12 07:44:57;;;;;;;2.97;2.42;;;;;;;27.22;60.37;99903.75;4966118;28;20114;-82
2023/07/12 07:47:23;;;;;;;3.72;2.45;;;;;;;27.74;57.56;99954.34;4967467;28;20193;-80
2023/07/12 07:49:50;;;;;;;3.38;2.35;;;;;;;27.77;57.08;99935.75;4973292;28;20053;-79
2023/07/12 07:52:17;;;;;;;3.83;2.85;;;;;;;27.74;58.54;99938.84;4982403;28;20089;-81
2023/07/12 07:54:43;;;;;;;2.60;2.40;;;;;;;27.11;62.25;99907.78;4977616;28;20054;-79
2023/07/12 07:57:10;;;;;;;3.17;2.50;;;;;;;27.07;61.60;99951.88;4971781;28;20046;-80
2023/07/12 07:59:37;;;;;;;3.63;2.60;;;;;;;26.81;62.77;99906.97;4974945;28;20101;-80
2023/07/12 08:02:04;;;;;;;3.72;2.28;;;;;;;27.42;59.53;99940.16;4972813;28;20081;-79
2023/07/12 08:04:31;;;;;;;4.60;2.42;;;;;;;27.64;57.84;99910.28;4972464;28;20078;-79
2023/07/12 08:06:58;;;;;;;3.03;2.72;;;;;;;27.61;56.57;99910.69;4968098;28;20042;-78
2023/07/12 08:09:24;;;;;;;2.78;2.47;;;;;;;27.57;56.98;99937.41;4977252;28;20132;-80
2023/07/12 08:11:51;;;;;;;5.20;2.97;;;;;;;27.65;56.43;99950.06;4967923;28;20046;-79
2023/07/12 08:14:20;;;;;;;4.70;2.60;;;;;;;27.66;55.18;99949.88;4994805;28;20491;-79
2023/07/12 08:16:48;;;;;;;4.43;2.80;;;;;;;27.14;54.32;99941.91;4990870;28;20236;-80
2023/07/12 08:19:15;;;;;;;5.20;2.78;;;;;;;26.77;58.22;99924.66;4974740;28;20058;-79
2023/07/12 08:21:45;;;;;;;3.75;3.13;;;;;;;26.84;56.20;99946.50;4974741;28;20050;-77
2023/07/12 08:24:11;;;;;;;4.25;3.00;;;;;;;26.67;57.88;99931.41;4972776;28;20054;-80
2023/07/12 08:26:38;;;;;;;3.83;2.55;;;;;;;27.04;58.15;99941.38;4986240;28;20190;-76
2023/07/12 08:29:11;;;;;;;3.63;3.20;;;;;;;27.51;56.19;99944.47;4984361;28;20042;-78
2023/07/12 08:31:38;;;;;;;3.22;2.75;;;;;;;27.07;56.26;99908.38;4973450;28;20047;-79
2023/07/12 08:34:05;;;;;;;3.20;2.67;;;;;;;27.23;58.59;99957.09;4976480;28;20038;-79
2023/07/12 08:36:32;;;;;;;3.88;2.72;;;;;;;27.63;54.25;99952.13;4976297;28;20042;-78
2023/07/12 08:38:58;;;;;;;3.85;2.78;;;;;;;28.05;51.89;99946.69;4972377;28;20122;-79
2023/07/12 08:41:26;;;;;;;4.43;2.70;;;;;;;28.43;53.57;99949.97;4977614;28;20097;-78
2023/07/12 08:43:53;;;;;;;3.33;2.30;;;;;;;28.14;49.57;99922.91;4976881;28;20026;-79
2023/07/12 08:46:24;;;;;;;5.95;2.22;;;;;;;27.59;51.38;99928.03;4976826;28;20515;-79
2023/07/12 08:48:54;;;;;;;4.30;1.90;;;;;;;27.06;50.60;99923.84;4975982;28;20043;-79
2023/07/12 08:51:28;;;;;;;;;;;;;;;27.05;53.08;99968.34;4997709;28;20042;-81
2023/07/12 08:53:55;;;;;;;4.95;1.77;;;;;;;26.91;52.19;99955.59;5000620;28;19933;-78
2023/07/12 08:56:23;;;;;;;3.65;1.70;;;;;;;26.98;53.30;99961.13;4991021;23;21191;-72
2023/07/12 08:58:53;;;;;;;2.53;1.83;;;;;;;26.85;51.56;99929.16;4961492;28;20081;-73
2023/07/12 09:01:29;;;;;;;3.08;1.75;;;;;;;27.26;51.23;99962.13;4978630;28;20051;-73
2023/07/12 09:03:55;;;;;;;4.07;1.70;;;;;;;27.46;50.42;99975.97;4977560;28;20627;-72
2023/07/12 09:06:22;;;;;;;3.35;1.90;;;;;;;27.32;50.29;99955.09;4980490;28;20073;-73
2023/07/12 09:08:53;;;;;;;3.63;1.60;;;;;;;26.93;51.15;99958.94;4982749;28;20046;-72
2023/07/12 09:11:28;;;;;;;2.50;1.48;;;;;;;26.89;51.28;99963.94;4969165;28;20054;-73
2023/07/12 09:14:05;;;;;;;3.83;1.52;;;;;;;26.63;52.24;99968.94;4960120;28;20126;-73
2023/07/12 09:16:34;;;;;;;4.22;2.97;;;;;;;26.59;53.61;99964.94;4976336;28;20177;-73
2023/07/12 09:19:27;;;;;;;4.72;2.17;;;;;;;26.76;53.19;99976.47;4979065;28;20057;-73
2023/07/12 09:21:56;;;;;;;4.82;1.80;;;;;;;26.95;52.03;99970.50;4981815;28;20047;-73
2023/07/12 09:24:31;;;;;;;2.97;2.10;;;;;;;26.97;52.18;99964.88;4964479;28;20044;-73
2023/07/12 09:27:06;;;;;;;4.13;1.80;;;;;;;26.72;53.08;99970.56;4963202;28;20039;-72
2023/07/12 09:29:34;;;;;;;3.55;3.10;;;;;;;26.57;53.32;99961.56;4972461;28;20047;-71
2023/07/12 09:32:02;;;;;;;2.97;2.10;;;;;;;26.32;55.70;99966.38;4973250;28;20106;-71
2023/07/12 09:34:40;;;;;;;3.93;1.97;;;;;;;26.12;55.30;99941.59;4984859;28;20106;-73
2023/07/12 09:37:19;;;;;;;1.70;1.60;;;;;;;26.20;57.28;99951.53;4975614;28;20125;-71
2023/07/12 09:39:57;;;;;;;4.10;1.90;;;;;;;26.35;55.65;99957.88;4963352;28;20514;-72
2023/07/12 09:42:29;;;;;;;3.03;1.80;;;;;;;26.29;55.66;99957.78;4970791;28;20058;-72
2023/07/12 09:44:57;;;;;;;5.38;1.80;;;;;;;26.01;57.40;99914.03;4972978;28;20475;-74
2023/07/12 09:47:34;;;;;;;4.63;1.83;;;;;;;26.19;56.84;99937.13;4962041;28;20073;-74
2023/07/12 09:50:13;;;;;;;2.30;1.63;;;;;;;26.51;56.36;99963.13;4962913;28;20054;-74
2023/07/12 09:52:49;;;;;;;2.50;1.83;;;;;;;26.62;54.55;99920.25;4963484;28;20061;-73
2023/07/12 09:55:29;;;;;;;2.83;1.92;;;;;;;26.77;54.12;99956.41;4965747;28;20085;-72
2023/07/12 09:58:23;;;;;;;4.78;2.55;;;;;;;26.85;55.17;99953.63;4975919;28;20538;-71
2023/07/12 10:01:25;;;;;;;4.35;2.15;;;;;;;26.61;54.39;99956.56;4967597;28;20093;-71
2023/07/12 10:03:55;;;;;;;6.05;2.60;;;;;;;26.80;54.38;99954.16;4943112;28;20050;-74
2023/07/12 10:06:49;;;;;;;5.05;2.10;;;;;;;26.78;56.16;99950.78;4962131;28;20725;-72
2023/07/12 10:09:31;;;;;;;4.65;2.58;;;;;;;26.80;54.05;99954.16;4957719;28;20609;-72
2023/07/12 10:12:03;;;;;;;3.88;2.40;;;;;;;26.63;54.55;99962.69;4973300;28;20046;-72
2023/07/12 10:14:38;;;;;;;4.43;2.20;;;;;;;26.64;55.08;99959.78;4968294;28;20046;-71
2023/07/12 10:17:16;;;;;;;4.95;2.33;;;;;;;26.52;56.12;99964.81;4969727;28;20039;-72
2023/07/12 10:19:49;;;;;;;4.95;2.13;;;;;;;26.57;58.05;99945.28;4967974;28;20773;-73
2023/07/12 10:22:29;;;;;;;3.90;2.38;;;;;;;26.80;56.65;99935.16;4979632;28;20047;-71
2023/07/12 10:24:58;;;;;;;;;;;;;;;26.96;57.03;99946.88;4974195;28;20184;-73
2023/07/12 10:27:35;;;;;;;3.15;2.13;;;;;;;26.92;55.09;99942.84;4990890;28;19989;-71
2023/07/12 10:30:09;;;;;;;3.92;2.50;;;;;;;26.81;56.96;99949.56;4979567;28;20047;-72
2023/07/12 10:32:43;;;;;;;5.80;2.33;;;;;;;26.99;56.94;99941.06;4979733;28;20038;-72
2023/07/12 10:35:21;;;;;;;8.95;2.42;;;;;;;27.19;57.11;99937.59;4976276;28;20054;-73
2023/07/12 10:38:01;;;;;;;2.85;2.20;;;;;;;27.29;54.77;99945.44;4974921;28;20054;-70
2023/07/12 10:40:35;;;;;;;4.72;2.35;;;;;;;27.40;55.54;99941.38;4996452;28;20129;-70
2023/07/12 10:43:12;;;;;;;9.77;2.58;;;;;;;27.74;53.81;99938.84;4975322;28;20050;-70
2023/07/12 10:45:39;;;;;;;4.22;2.80;;;;;;;28.10;52.70;99943.38;4976414;28;20146;-71
2023/07/12 10:48:09;;;;;;;4.25;2.53;;;;;;;28.07;52.88;99950.06;4970318;28;20035;-73
2023/07/12 10:50:48;;;;;;;5.40;3.15;;;;;;;28.43;52.39;99946.41;4973217;28;20487;-73
2023/07/12 10:53:25;;;;;;;4.65;2.20;;;;;;;28.68;49.04;99936.72;4973100;28;20051;-75
2023/07/12 10:56:31;;;;;;;4.90;2.25;;;;;;;29.00;48.13;99937.16;4968190;28;20062;-73
2023/07/12 10:59:30;;;;;;;3.67;2.00;;;;;;;29.09;45.67;99938.69;4963302;28;20062;-71
2023/07/12 11:02:21;;;;;;;5.03;1.88;;;;;;;28.26;44.57;99924.94;4971483;28;20050;-73
2023/07/12 11:04:49;;;;;;;4.32;1.90;;;;;;;28.06;45.12;99920.31;4957174;28;22188;-73
2023/07/12 11:07:15;;;;;;;3.33;1.70;;;;;;;28.17;43.66;99939.69;4967804;28;20126;-72
2023/07/12 11:09:47;;;;;;;2.28;1.27;;;;;;;28.32;42.94;99931.47;4964999;28;20074;-73
2023/07/12 11:12:39;;;;;;;2.20;1.40;;;;;;;28.42;42.34;99910.16;4967253;28;20058;-72
2023/07/12 11:15:11;;;;;;;2.70;1.50;;;;;;;28.67;41.61;99915.97;4968755;28;20070;-74
2023/07/12 11:17:50;;;;;;;3.33;1.33;;;;;;;28.82;41.35;99913.16;4969489;28;20495;-72
2023/07/12 11:20:27;;;;;;;5.50;1.42;;;;;;;28.75;41.92;99915.81;4962683;28;20117;-72
2023/07/12 11:22:57;;;;;;;3.38;1.52;;;;;;;28.47;41.69;99899.53;4963128;28;20054;-72
2023/07/12 11:25:36;;;;;;;2.95;1.20;;;;;;;28.48;42.67;99917.56;4970444;28;20078;-72
2023/07/12 11:28:28;;;;;;;1.77;1.00;;;;;;;28.34;40.67;99918.47;4983516;28;20080;-72
2023/07/12 11:31:16;;;;;;;2.83;1.60;;;;;;;28.11;41.81;99907.81;4958616;28;20448;-72
2023/07/12 11:33:52;;;;;;;1.27;1.17;;;;;;;28.40;42.24;99925.00;4973227;28;20039;-72
2023/07/12 11:36:23;;;;;;;2.33;1.33;;;;;;;28.52;41.06;99918.81;4993353;28;20039;-74
2023/07/12 11:38:51;;;;;;;2.70;1.20;;;;;;;28.64;41.53;99910.94;4969088;28;20051;-72
2023/07/12 11:41:26;;;;;;;3.47;1.27;;;;;;;28.82;40.34;99910.41;4977971;28;20058;-74